Time;durP1;ratioP1;P1;durP2;ratioP2;P2;SDS_P1;SDS_P2;PMS_P1;PMS_P2;Temp;Humidity;BMP_temperature;BMP_pressure;BME280_temperature;BME280_humidity;BME280_pressure;Samples;Min_cycle;Max_cycle;Signal;HPM_P1;HPM_P2
2023/03/25 00:00:20;;;;;;;6.18;4.85;;;;;;;;;;5047797;28;20128;-63
2023/03/25 00:02:48;;;;;;;5.57;4.35;;;;;;;;;;5046551;28;20619;-64
2023/03/25 00:05:14;;;;;;;5.53;4.28;;;;;;;;;;5026476;28;20127;-63
2023/03/25 00:07:40;;;;;;;6.22;4.70;;;;;;;;;;5028173;28;20123;-63
2023/03/25 00:10:06;;;;;;;6.38;4.65;;;;;;;;;;5022077;28;20501;-63
2023/03/25 00:12:31;;;;;;;5.78;4.20;;;;;;;;;;5055960;28;20032;-63
2023/03/25 00:14:57;;;;;;;6.43;4.70;;;;;;;;;;5050410;28;20058;-64
2023/03/25 00:17:25;;;;;;;6.57;4.65;;;;;;;;;;5031433;28;20347;-62
2023/03/25 00:19:50;;;;;;;5.18;4.53;;;;;;;;;;5048276;28;20053;-63
2023/03/25 00:22:16;;;;;;;6.80;4.30;;;;;;;;;;5027561;28;20041;-64
2023/03/25 00:24:41;;;;;;;6.22;4.38;;;;;;;;;;5031257;28;20068;-63
2023/03/25 00:27:07;;;;;;;5.77;4.27;;;;;;;;;;5026552;28;20135;-63
2023/03/25 00:29:32;;;;;;;5.13;4.30;;;;;;;;;;5034731;28;20295;-61
2023/03/25 00:31:57;;;;;;;5.97;4.50;;;;;;;;;;5037315;28;20333;-61
2023/03/25 00:34:22;;;;;;;7.37;4.57;;;;;;;;;;5038688;28;20571;-63
2023/03/25 00:36:49;;;;;;;6.13;4.95;;;;;;;;;;5037523;28;20303;-63
2023/03/25 00:39:14;;;;;;;6.30;4.72;;;;;;;;;;5029526;28;20521;-63
2023/03/25 00:41:40;;;;;;;6.23;4.80;;;;;;;;;;5034615;28;20124;-62
2023/03/25 00:44:06;;;;;;;5.25;4.05;;;;;;;;;;5052081;28;20327;-61
2023/03/25 00:46:31;;;;;;;6.70;4.70;;;;;;;;;;5036126;28;20477;-62
2023/03/25 00:48:57;;;;;;;5.32;4.18;;;;;;;;;;5040382;28;20505;-64
2023/03/25 00:51:22;;;;;;;5.65;4.05;;;;;;;;;;5029162;28;20075;-63
2023/03/25 00:53:52;;;;;;;4.78;4.22;;;;;;;;;;5019543;28;20021;-63
2023/03/25 00:56:17;;;;;;;5.55;4.47;;;;;;;;;;5044003;28;20540;-63
2023/03/25 00:58:42;;;;;;;5.47;4.55;;;;;;;;;;5047436;28;20048;-63
2023/03/25 01:01:12;;;;;;;5.70;4.43;;;;;;;;;;5036584;28;20143;-62
2023/03/25 01:03:37;;;;;;;6.40;4.18;;;;;;;;;;5040188;28;20071;-60
2023/03/25 01:06:03;;;;;;;4.90;4.40;;;;;;;;;;5043252;28;20060;-62
2023/03/25 01:08:28;;;;;;;5.47;4.40;;;;;;;;;;5030249;28;20446;-63
2023/03/25 01:10:54;;;;;;;5.93;4.20;;;;;;;;;;5044703;28;20033;-63
2023/03/25 01:13:19;;;;;;;5.85;4.35;;;;;;;;;;5025271;28;20532;-62
2023/03/25 01:15:44;;;;;;;6.63;4.53;;;;;;;;;;5041191;28;20048;-62
2023/03/25 01:18:10;;;;;;;7.35;4.30;;;;;;;;;;5038790;28;21106;-62
2023/03/25 01:20:35;;;;;;;5.47;4.30;;;;;;;;;;5042137;28;20029;-63
2023/03/25 01:23:01;;;;;;;6.10;4.53;;;;;;;;;;5033273;28;20808;-63
2023/03/25 01:25:26;;;;;;;6.40;4.65;;;;;;;;;;5032939;28;20515;-61
2023/03/25 01:27:51;;;;;;;5.90;4.18;;;;;;;;;;5033930;28;20041;-62
2023/03/25 01:30:16;;;;;;;5.30;4.32;;;;;;;;;;5011665;28;20498;-62
2023/03/25 01:32:42;;;;;;;5.90;4.50;;;;;;;;;;5033941;28;20029;-63
2023/03/25 01:35:07;;;;;;;5.63;4.05;;;;;;;;;;5037469;28;20041;-63
2023/03/25 01:37:35;;;;;;;6.10;4.38;;;;;;;;;;5028588;28;20517;-64
2023/03/25 01:40:01;;;;;;;5.13;4.10;;;;;;;;;;5048492;28;20091;-64
2023/03/25 01:42:26;;;;;;;5.97;4.25;;;;;;;;;;5035525;28;20048;-64
2023/03/25 01:44:51;;;;;;;5.10;4.13;;;;;;;;;;5044096;28;20504;-64
2023/03/25 01:47:16;;;;;;;5.17;3.87;;;;;;;;;;5048995;28;20688;-63
2023/03/25 01:49:43;;;;;;;5.27;4.50;;;;;;;;;;5015295;28;20505;-65
2023/03/25 01:52:15;;;;;;;5.60;4.47;;;;;;;;;;5049442;28;20267;-64
2023/03/25 01:54:41;;;;;;;5.10;4.18;;;;;;;;;;5040905;28;20079;-64
2023/03/25 01:57:06;;;;;;;5.80;4.63;;;;;;;;;;5035886;28;20060;-62
2023/03/25 01:59:31;;;;;;;5.40;4.23;;;;;;;;;;5033874;28;20083;-63
2023/03/25 02:01:58;;;;;;;4.47;4.00;;;;;;;;;;5035992;28;20953;-62
2023/03/25 02:04:30;;;;;;;5.03;3.90;;;;;;;;;;5031503;28;20344;-64
2023/03/25 02:06:56;;;;;;;5.40;4.40;;;;;;;;;;5034435;28;20060;-63
2023/03/25 02:09:21;;;;;;;5.22;4.40;;;;;;;;;;5032975;28;20036;-63
2023/03/25 02:11:47;;;;;;;5.90;4.35;;;;;;;;;;5023542;28;20025;-64
2023/03/25 02:14:13;;;;;;;5.95;4.30;;;;;;;;;;5045384;28;20024;-64
2023/03/25 02:16:57;;;;;;;5.20;4.20;;;;;;;;;;5039342;28;20760;-63
2023/03/25 02:19:22;;;;;;;5.20;4.22;;;;;;;;;;5050343;28;20053;-64
2023/03/25 02:21:53;;;;;;;5.70;4.50;;;;;;;;;;5045641;28;20029;-62
2023/03/25 02:24:19;;;;;;;6.05;4.53;;;;;;;;;;5042015;28;20040;-63
2023/03/25 02:26:55;;;;;;;4.90;3.90;;;;;;;;;;5050188;28;20116;-63
2023/03/25 02:29:48;;;;;;;5.25;4.05;;;;;;;;;;5039355;28;20279;-63
2023/03/25 02:32:16;;;;;;;6.13;4.45;;;;;;;;;;5049057;28;20076;-64
2023/03/25 02:35:02;;;;;;;5.25;4.30;;;;;;;;;;5044699;28;20059;-62
2023/03/25 02:37:45;;;;;;;5.10;4.30;;;;;;;;;;5042715;28;20045;-64
2023/03/25 02:40:21;;;;;;;5.18;4.00;;;;;;;;;;5057091;28;20052;-64
2023/03/25 02:42:54;;;;;;;5.45;4.60;;;;;;;;;;5037518;28;20036;-62
2023/03/25 02:45:19;;;;;;;5.90;4.40;;;;;;;;;;5035741;28;20040;-63
2023/03/25 02:47:46;;;;;;;5.75;4.30;;;;;;;;;;5055872;28;20090;-63
2023/03/25 02:50:21;;;;;;;5.68;4.70;;;;;;;;;;5045930;28;20032;-63
2023/03/25 02:52:48;;;;;;;5.15;3.97;;;;;;;;;;5046501;28;20037;-63
2023/03/25 02:55:13;;;;;;;4.68;4.07;;;;;;;;;;5045024;28;20497;-64
2023/03/25 02:57:43;;;;;;;5.10;3.97;;;;;;;;;;5053367;28;20059;-63
2023/03/25 03:00:14;;;;;;;5.07;4.10;;;;;;;;;;5036762;28;20033;-62
2023/03/25 03:02:42;;;;;;;5.45;4.20;;;;;;;;;;5035871;28;20111;-63
2023/03/25 03:05:20;;;;;;;4.80;4.10;;;;;;;;;;5053253;28;20036;-62
2023/03/25 03:07:45;;;;;;;5.28;4.03;;;;;;;;;;5054890;28;20451;-62
2023/03/25 03:10:25;;;;;;;4.78;3.92;;;;;;;;;;5040882;28;20033;-63
2023/03/25 03:13:09;;;;;;;5.05;3.97;;;;;;;;;;5051959;28;20048;-63
2023/03/25 03:15:57;;;;;;;4.72;4.18;;;;;;;;;;5047024;28;20396;-64
2023/03/25 03:18:32;;;;;;;4.65;4.13;;;;;;;;;;5027557;28;20140;-63
2023/03/25 03:20:59;;;;;;;5.28;4.45;;;;;;;;;;5028737;28;20418;-62
2023/03/25 03:23:27;;;;;;;4.82;4.03;;;;;;;;;;5032270;28;20039;-63
2023/03/25 03:26:03;;;;;;;5.07;4.07;;;;;;;;;;5051468;28;20137;-63
2023/03/25 03:28:55;;;;;;;4.60;3.88;;;;;;;;;;5051027;28;20041;-64
2023/03/25 03:31:28;;;;;;;5.75;4.43;;;;;;;;;;5048766;28;20051;-63
2023/03/25 03:34:01;;;;;;;5.50;4.18;;;;;;;;;;5054718;28;20039;-63
2023/03/25 03:36:29;;;;;;;5.88;3.70;;;;;;;;;;5042242;28;20571;-64
2023/03/25 03:38:57;;;;;;;5.43;3.85;;;;;;;;;;5051609;28;20036;-63
2023/03/25 03:41:22;;;;;;;5.05;4.22;;;;;;;;;;5052418;28;20017;-63
2023/03/25 03:43:53;;;;;;;5.13;4.22;;;;;;;;;;5042887;28;20078;-65
2023/03/25 03:46:18;;;;;;;;;;;;;;;;;;5024742;28;20091;-62
2023/03/25 03:48:44;;;;;;;5.50;4.27;;;;;;;;;;5043795;28;19913;-64
2023/03/25 03:51:11;;;;;;;4.97;3.97;;;;;;;;;;5047108;28;20397;-63
2023/03/25 03:53:40;;;;;;;6.10;4.32;;;;;;;;;;5047843;28;20359;-63
2023/03/25 03:56:13;;;;;;;5.13;4.40;;;;;;;;;;5052811;28;20044;-63
2023/03/25 03:58:42;;;;;;;5.38;4.30;;;;;;;;;;5050455;28;20037;-63
2023/03/25 04:01:09;;;;;;;5.32;3.95;;;;;;;;;;5042824;28;20052;-64
2023/03/25 04:04:10;;;;;;;5.65;4.00;;;;;;;;;;5040635;28;20265;-65
2023/03/25 04:06:37;;;;;;;4.63;3.78;;;;;;;;;;4989297;28;20038;-66
2023/03/25 04:09:18;;;;;;;5.20;4.07;;;;;;;;;;5040701;28;20098;-64
2023/03/25 04:11:51;;;;;;;5.38;4.25;;;;;;;;;;5042507;28;20036;-63
2023/03/25 04:14:16;;;;;;;4.82;3.95;;;;;;;;;;5045893;28;20044;-63
2023/03/25 04:16:44;;;;;;;5.05;4.18;;;;;;;;;;5045535;28;20121;-62
2023/03/25 04:19:12;;;;;;;5.53;4.38;;;;;;;;;;5051668;28;20139;-62
2023/03/25 04:21:37;;;;;;;5.18;4.28;;;;;;;;;;5047175;28;20040;-63
2023/03/25 04:24:03;;;;;;;5.40;4.40;;;;;;;;;;5050609;28;20057;-64
2023/03/25 04:26:32;;;;;;;4.85;4.30;;;;;;;;;;5053731;28;20270;-63
2023/03/25 04:28:58;;;;;;;5.60;4.30;;;;;;;;;;5053015;28;20033;-63
2023/03/25 04:31:24;;;;;;;5.07;3.97;;;;;;;;;;5037766;28;20115;-64
2023/03/25 04:33:50;;;;;;;6.18;4.03;;;;;;;;;;5051326;28;20114;-63
2023/03/25 04:36:16;;;;;;;4.60;3.83;;;;;;;;;;5050167;28;20032;-62
2023/03/25 04:38:44;;;;;;;4.97;3.85;;;;;;;;;;5047980;28;20568;-65
2023/03/25 04:41:09;;;;;;;4.93;4.18;;;;;;;;;;5020372;28;20061;-62
2023/03/25 04:43:35;;;;;;;5.03;3.90;;;;;;;;;;5018431;28;20064;-62
2023/03/25 04:46:01;;;;;;;5.10;4.03;;;;;;;;;;5037631;28;20337;-63
2023/03/25 04:48:29;;;;;;;5.03;3.83;;;;;;;;;;5036680;28;20033;-63
2023/03/25 04:50:56;;;;;;;5.50;4.00;;;;;;;;;;5034206;28;20048;-64
2023/03/25 04:53:21;;;;;;;4.65;4.13;;;;;;;;;;5043311;28;20079;-63
2023/03/25 04:55:48;;;;;;;4.97;4.07;;;;;;;;;;5045865;28;20208;-62
2023/03/25 04:58:14;;;;;;;5.43;3.67;;;;;;;;;;5038211;28;20314;-65
2023/03/25 05:00:39;;;;;;;5.18;4.15;;;;;;;;;;5040272;28;20036;-64
2023/03/25 05:03:05;;;;;;;5.05;3.70;;;;;;;;;;5039339;28;20700;-63
2023/03/25 05:05:30;;;;;;;4.80;3.50;;;;;;;;;;5038007;28;20087;-63
2023/03/25 05:07:57;;;;;;;4.50;3.83;;;;;;;;;;5035999;28;20417;-62
2023/03/25 05:10:23;;;;;;;4.93;3.80;;;;;;;;;;5012459;28;20072;-64
2023/03/25 05:12:49;;;;;;;5.10;3.53;;;;;;;;;;5046589;28;20137;-62
2023/03/25 05:15:15;;;;;;;4.70;3.90;;;;;;;;;;5036221;28;20036;-62
2023/03/25 05:17:42;;;;;;;5.70;4.05;;;;;;;;;;5034588;28;20098;-64
2023/03/25 05:20:09;;;;;;;5.53;3.75;;;;;;;;;;5041857;28;20056;-63
2023/03/25 05:22:36;;;;;;;5.50;4.00;;;;;;;;;;5033128;28;20163;-63
2023/03/25 05:25:03;;;;;;;4.78;3.42;;;;;;;;;;5040480;28;20149;-61
2023/03/25 05:27:29;;;;;;;4.78;3.80;;;;;;;;;;5037500;28;20104;-65
2023/03/25 05:29:57;;;;;;;4.55;3.60;;;;;;;;;;5038140;28;20088;-63
2023/03/25 05:32:23;;;;;;;4.57;3.80;;;;;;;;;;5019364;28;20120;-64
2023/03/25 05:34:48;;;;;;;4.78;3.35;;;;;;;;;;5039786;28;20024;-62
2023/03/25 05:37:13;;;;;;;4.10;3.30;;;;;;;;;;5047539;28;20028;-63
2023/03/25 05:39:39;;;;;;;4.75;3.80;;;;;;;;;;5039653;28;20287;-62
2023/03/25 05:42:04;;;;;;;4.75;3.72;;;;;;;;;;5034973;28;20150;-62
2023/03/25 05:44:29;;;;;;;4.40;3.60;;;;;;;;;;5047962;28;20079;-61
2023/03/25 05:46:55;;;;;;;5.17;3.87;;;;;;;;;;5049008;28;20013;-63
2023/03/25 05:49:20;;;;;;;4.63;3.67;;;;;;;;;;5038983;28;20707;-64
2023/03/25 05:51:48;;;;;;;4.85;3.75;;;;;;;;;;5045572;28;20013;-62
2023/03/25 05:54:13;;;;;;;4.32;3.50;;;;;;;;;;5035427;28;20120;-65
2023/03/25 05:56:40;;;;;;;4.97;3.55;;;;;;;;;;5037024;28;20183;-63
2023/03/25 05:59:05;;;;;;;4.82;3.50;;;;;;;;;;5030706;28;20063;-62
2023/03/25 06:01:32;;;;;;;4.78;3.83;;;;;;;;;;5028352;28;20107;-63
2023/03/25 06:03:59;;;;;;;5.22;3.38;;;;;;;;;;5034231;28;20542;-65
2023/03/25 06:06:26;;;;;;;4.72;3.42;;;;;;;;;;5017940;28;21042;-64
2023/03/25 06:08:51;;;;;;;4.55;3.65;;;;;;;;;;5031222;28;20385;-64
2023/03/25 06:11:17;;;;;;;3.93;3.33;;;;;;;;;;5024243;28;20043;-62
2023/03/25 06:13:49;;;;;;;5.45;3.75;;;;;;;;;;5036328;28;20306;-65
2023/03/25 06:16:18;;;;;;;5.05;3.60;;;;;;;;;;5005352;28;20049;-63
2023/03/25 06:18:49;;;;;;;4.03;3.40;;;;;;;;;;5030311;28;20049;-63
2023/03/25 06:21:14;;;;;;;4.90;3.20;;;;;;;;;;5029654;28;20048;-63
2023/03/25 06:23:39;;;;;;;4.10;3.70;;;;;;;;;;5019303;28;20029;-66
2023/03/25 06:26:05;;;;;;;4.63;3.27;;;;;;;;;;5031618;28;20113;-63
2023/03/25 06:28:32;;;;;;;4.15;3.60;;;;;;;;;;5034385;28;20279;-64
2023/03/25 06:30:57;;;;;;;4.97;3.53;;;;;;;;;;5029299;28;20048;-62
2023/03/25 06:33:22;;;;;;;3.87;3.47;;;;;;;;;;5030098;28;20985;-62
2023/03/25 06:35:52;;;;;;;4.70;3.50;;;;;;;;;;5028297;28;20307;-66
2023/03/25 06:38:17;;;;;;;3.85;3.45;;;;;;;;;;5019204;28;20299;-66
2023/03/25 06:40:43;;;;;;;4.63;3.50;;;;;;;;;;5031471;28;20670;-67
2023/03/25 06:43:08;;;;;;;4.22;3.30;;;;;;;;;;5022357;28;20033;-64
2023/03/25 06:45:33;;;;;;;4.93;3.50;;;;;;;;;;5029517;28;20080;-66
2023/03/25 06:47:59;;;;;;;3.40;2.97;;;;;;;;;;5029929;28;20313;-63
2023/03/25 06:50:24;;;;;;;3.65;3.28;;;;;;;;;;5028505;28;20028;-65
2023/03/25 06:52:50;;;;;;;4.65;3.40;;;;;;;;;;5027389;28;20029;-65
2023/03/25 06:55:15;;;;;;;4.05;3.40;;;;;;;;;;5021892;28;20032;-66
2023/03/25 06:57:40;;;;;;;3.95;3.50;;;;;;;;;;5029264;28;20385;-66
2023/03/25 07:00:06;;;;;;;4.32;3.30;;;;;;;;;;5012168;28;20655;-64
2023/03/25 07:02:32;;;;;;;3.90;3.38;;;;;;;;;;5029870;28;20091;-65
2023/03/25 07:04:57;;;;;;;4.53;3.10;;;;;;;;;;5031190;28;20037;-65
2023/03/25 07:07:22;;;;;;;5.70;4.93;;;;;;;;;;5027958;28;20047;-67
2023/03/25 07:09:51;;;;;;;4.20;3.60;;;;;;;;;;5011101;28;20047;-64
2023/03/25 07:12:16;;;;;;;4.35;3.25;;;;;;;;;;5022597;28;20033;-63
2023/03/25 07:14:43;;;;;;;4.50;3.50;;;;;;;;;;5029619;28;20052;-65
2023/03/25 07:17:08;;;;;;;5.45;3.53;;;;;;;;;;5030567;28;20303;-65
2023/03/25 07:19:33;;;;;;;6.97;3.40;;;;;;;;;;5026063;28;20051;-64
2023/03/25 07:21:59;;;;;;;4.40;3.53;;;;;;;;;;5029325;28;20830;-62
2023/03/25 07:24:24;;;;;;;4.30;3.65;;;;;;;;;;5029446;28;20039;-66
2023/03/25 07:26:49;;;;;;;4.25;3.50;;;;;;;;;;5026654;28;20100;-64
2023/03/25 07:29:14;;;;;;;4.03;3.30;;;;;;;;;;5021362;28;20591;-65
2023/03/25 07:31:40;;;;;;;4.70;3.70;;;;;;;;;;5027647;28;20378;-62
2023/03/25 07:34:07;;;;;;;4.80;3.67;;;;;;;;;;5038942;28;20313;-65
2023/03/25 07:36:32;;;;;;;4.00;3.33;;;;;;;;;;5026229;28;20040;-65
2023/03/25 07:38:57;;;;;;;5.50;3.63;;;;;;;;;;5027765;28;20113;-64
2023/03/25 07:41:23;;;;;;;4.63;3.53;;;;;;;;;;5028915;28;20322;-67
2023/03/25 07:43:48;;;;;;;4.30;3.50;;;;;;;;;;5028004;28;20668;-64
2023/03/25 07:46:13;;;;;;;4.45;3.75;;;;;;;;;;5028901;28;20295;-67
2023/03/25 07:48:38;;;;;;;4.20;3.30;;;;;;;;;;5027932;28;20548;-64
2023/03/25 07:51:04;;;;;;;4.03;3.27;;;;;;;;;;5030172;28;20041;-65
2023/03/25 07:53:29;;;;;;;4.45;3.40;;;;;;;;;;5029025;28;20386;-67
2023/03/25 07:55:55;;;;;;;4.03;3.22;;;;;;;;;;5029742;28;20063;-69
2023/03/25 07:58:20;;;;;;;4.70;3.47;;;;;;;;;;5027707;28;20354;-66
2023/03/25 08:00:45;;;;;;;3.97;3.27;;;;;;;;;;5027598;28;20127;-65
2023/03/25 08:03:11;;;;;;;4.30;3.10;;;;;;;;;;5028550;28;20291;-67
2023/03/25 08:05:36;;;;;;;6.10;3.53;;;;;;;;;;5015827;28;20298;-66
2023/03/25 08:08:02;;;;;;;4.55;3.10;;;;;;;;;;5029940;28;20197;-64
2023/03/25 08:10:28;;;;;;;4.57;3.38;;;;;;;;;;5014513;28;20424;-64
2023/03/25 08:12:53;;;;;;;4.22;3.20;;;;;;;;;;5036272;28;20033;-67
2023/03/25 08:15:19;;;;;;;4.80;3.28;;;;;;;;;;5020386;28;20059;-64
2023/03/25 08:17:44;;;;;;;4.80;3.55;;;;;;;;;;5026763;28;20543;-65
2023/03/25 08:20:10;;;;;;;4.53;3.30;;;;;;;;;;5001268;28;20037;-64
2023/03/25 08:22:35;;;;;;;4.55;3.60;;;;;;;;;;5026301;28;20068;-65
2023/03/25 08:25:00;;;;;;;3.43;2.80;;;;;;;;;;5027782;28;20041;-64
2023/03/25 08:27:26;;;;;;;3.50;2.80;;;;;;;;;;5023231;28;20335;-63
2023/03/25 08:29:58;;;;;;;4.63;3.25;;;;;;;;;;5034451;28;20283;-63
2023/03/25 08:32:25;;;;;;;4.25;3.50;;;;;;;;;;5029294;28;20120;-63
2023/03/25 08:34:50;;;;;;;4.47;3.28;;;;;;;;;;5028752;28;20489;-63
2023/03/25 08:37:15;;;;;;;5.88;3.10;;;;;;;;;;5013992;28;20024;-64
2023/03/25 08:39:43;;;;;;;3.60;2.95;;;;;;;;;;5024907;28;20063;-64
2023/03/25 08:42:09;;;;;;;3.85;3.28;;;;;;;;;;5029647;28;20411;-65
2023/03/25 08:44:34;;;;;;;3.40;2.85;;;;;;;;;;5037252;28;20068;-65
2023/03/25 08:46:59;;;;;;;4.60;3.00;;;;;;;;;;5026169;28;20044;-65
2023/03/25 08:49:25;;;;;;;3.53;2.88;;;;;;;;;;5015092;28;21171;-67
2023/03/25 08:51:50;;;;;;;4.15;3.28;;;;;;;;;;5028933;28;20046;-64
2023/03/25 08:54:16;;;;;;;3.67;3.20;;;;;;;;;;5020850;28;20453;-64
2023/03/25 08:56:41;;;;;;;4.25;3.58;;;;;;;;;;5010063;28;20782;-65
2023/03/25 08:59:06;;;;;;;4.20;3.30;;;;;;;;;;5003625;28;20052;-65
2023/03/25 09:01:32;;;;;;;3.40;2.90;;;;;;;;;;5030588;28;20048;-65
2023/03/25 09:03:57;;;;;;;4.30;3.42;;;;;;;;;;5027909;28;20318;-65
2023/03/25 09:06:22;;;;;;;3.63;3.03;;;;;;;;;;5028769;28;20040;-63
2023/03/25 09:08:48;;;;;;;3.58;3.10;;;;;;;;;;5028509;28;20032;-64
2023/03/25 09:11:14;;;;;;;4.13;3.10;;;;;;;;;;5027959;28;20037;-65
2023/03/25 09:13:39;;;;;;;4.57;3.05;;;;;;;;;;5026368;28;20630;-64
2023/03/25 09:16:05;;;;;;;3.78;3.03;;;;;;;;;;5035308;28;20324;-64
2023/03/25 09:18:31;;;;;;;4.10;3.00;;;;;;;;;;5027117;28;20033;-65
2023/03/25 09:20:59;;;;;;;3.67;2.97;;;;;;;;;;5024312;28;20028;-65
2023/03/25 09:23:25;;;;;;;3.72;3.08;;;;;;;;;;5006708;28;20150;-64
2023/03/25 09:25:50;;;;;;;3.78;3.05;;;;;;;;;;5029509;28;20285;-65
2023/03/25 09:28:15;;;;;;;4.73;3.50;;;;;;;;;;5029712;28;20056;-65
2023/03/25 09:30:41;;;;;;;4.40;3.10;;;;;;;;;;5028379;28;20286;-62
2023/03/25 09:33:06;;;;;;;4.53;3.13;;;;;;;;;;5027400;28;20037;-61
2023/03/25 09:35:31;;;;;;;5.25;3.53;;;;;;;;;;5014144;28;20041;-61
2023/03/25 09:37:57;;;;;;;4.20;3.10;;;;;;;;;;5007414;28;20048;-62
2023/03/25 09:40:22;;;;;;;3.88;3.20;;;;;;;;;;5024638;28;20071;-61
2023/03/25 09:43:00;;;;;;;3.72;3.20;;;;;;;;;;5026021;28;20029;-64
2023/03/25 09:45:35;;;;;;;4.13;2.92;;;;;;;;;;5022532;28;20052;-66
2023/03/25 09:48:02;;;;;;;4.72;3.30;;;;;;;;;;5023894;28;20067;-64
2023/03/25 09:50:28;;;;;;;3.35;3.03;;;;;;;;;;5022029;28;20057;-63
2023/03/25 09:52:55;;;;;;;3.70;3.15;;;;;;;;;;5015576;28;20044;-63
2023/03/25 09:55:25;;;;;;;5.97;3.63;;;;;;;;;;5019083;28;20469;-62
2023/03/25 09:57:53;;;;;;;6.40;3.70;;;;;;;;;;5024513;28;20051;-64
2023/03/25 10:00:21;;;;;;;5.63;4.00;;;;;;;;;;5018625;28;20044;-66
2023/03/25 10:03:06;;;;;;;4.85;3.47;;;;;;;;;;5024816;28;20102;-62
2023/03/25 10:05:38;;;;;;;6.13;3.83;;;;;;;;;;5042765;28;20028;-65
2023/03/25 10:08:06;;;;;;;6.28;3.92;;;;;;;;;;5051680;28;20028;-65
2023/03/25 10:10:35;;;;;;;5.18;3.88;;;;;;;;;;5055534;28;20024;-64
2023/03/25 10:13:15;;;;;;;6.97;3.95;;;;;;;;;;5054451;28;20028;-64
2023/03/25 10:15:50;;;;;;;6.88;4.07;;;;;;;;;;5046618;28;20048;-66
2023/03/25 10:18:22;;;;;;;4.75;3.90;;;;;;;;;;5047416;28;20044;-67
2023/03/25 10:20:47;;;;;;;6.53;4.25;;;;;;;;;;5049060;28;20054;-67
2023/03/25 10:23:19;;;;;;;4.90;3.50;;;;;;;;;;5052322;28;20021;-67
2023/03/25 10:25:44;;;;;;;6.60;3.72;;;;;;;;;;5052448;28;20945;-65
2023/03/25 10:28:12;;;;;;;5.88;3.65;;;;;;;;;;5020789;28;20032;-68
2023/03/25 10:30:41;;;;;;;4.20;3.22;;;;;;;;;;5057017;28;20059;-63
2023/03/25 10:33:33;;;;;;;6.65;3.83;;;;;;;;;;5045172;28;20608;-66
2023/03/25 10:35:59;;;;;;;6.00;3.70;;;;;;;;;;5069531;28;20111;-67
2023/03/25 10:38:24;;;;;;;4.88;3.80;;;;;;;;;;5040427;28;20115;-65
2023/03/25 10:40:51;;;;;;;5.57;3.72;;;;;;;;;;5055133;28;20036;-64
2023/03/25 10:43:17;;;;;;;6.35;3.72;;;;;;;;;;5065845;28;20614;-65
2023/03/25 10:45:42;;;;;;;5.80;3.70;;;;;;;;;;5045876;28;20139;-64
2023/03/25 10:48:12;;;;;;;5.75;3.45;;;;;;;;;;5056109;28;21056;-64
2023/03/25 10:50:38;;;;;;;4.88;3.45;;;;;;;;;;5043842;28;20044;-63
2023/03/25 10:53:03;;;;;;;4.18;3.55;;;;;;;;;;5040216;28;20032;-64
2023/03/25 10:55:31;;;;;;;5.40;3.70;;;;;;;;;;5055708;28;20055;-65
2023/03/25 10:57:56;;;;;;;5.20;3.28;;;;;;;;;;5056496;28;20037;-65
2023/03/25 11:00:23;;;;;;;4.73;3.37;;;;;;;;;;5044079;28;20379;-66
2023/03/25 11:02:49;;;;;;;4.85;3.67;;;;;;;;;;5047887;28;20294;-67
2023/03/25 11:05:21;;;;;;;5.35;3.80;;;;;;;;;;5054618;28;20025;-65
2023/03/25 11:07:50;;;;;;;4.43;3.33;;;;;;;;;;5045309;28;20449;-64
2023/03/25 11:10:17;;;;;;;6.53;3.40;;;;;;;;;;5032940;28;20048;-66
2023/03/25 11:12:44;;;;;;;4.82;3.45;;;;;;;;;;5045735;28;20334;-65
2023/03/25 11:15:13;;;;;;;5.90;3.50;;;;;;;;;;5016925;28;20602;-64
2023/03/25 11:17:39;;;;;;;7.55;4.40;;;;;;;;;;5009321;28;20417;-63
2023/03/25 11:20:06;;;;;;;6.55;3.90;;;;;;;;;;5027999;28;20118;-63
2023/03/25 11:22:34;;;;;;;8.25;3.83;;;;;;;;;;5008292;28;20511;-61
2023/03/25 11:25:00;;;;;;;5.25;3.60;;;;;;;;;;5030584;28;20151;-63
2023/03/25 11:27:27;;;;;;;5.10;4.00;;;;;;;;;;5020248;28;20037;-64
2023/03/25 11:29:53;;;;;;;6.00;3.80;;;;;;;;;;5022002;28;20130;-63
2023/03/25 11:32:37;;;;;;;7.50;4.32;;;;;;;;;;5019713;28;20457;-62
2023/03/25 11:35:15;;;;;;;4.90;3.22;;;;;;;;;;5030796;28;20813;-62
2023/03/25 11:37:45;;;;;;;4.72;3.40;;;;;;;;;;5015426;28;20449;-64
2023/03/25 11:40:10;;;;;;;;;;;;;;;;;;5023077;28;21811;-62
2023/03/25 11:42:41;;;;;;;6.17;3.20;;;;;;;;;;5027310;28;19931;-61
2023/03/25 11:45:12;;;;;;;5.30;3.03;;;;;;;;;;5022233;28;20287;-64
2023/03/25 11:47:39;;;;;;;4.25;3.05;;;;;;;;;;5021951;28;20040;-63
2023/03/25 11:50:05;;;;;;;4.28;3.13;;;;;;;;;;5020946;28;20203;-64
2023/03/25 11:52:38;;;;;;;5.05;3.30;;;;;;;;;;5028667;28;20154;-63
2023/03/25 11:55:04;;;;;;;4.53;3.00;;;;;;;;;;5028121;28;20097;-61
2023/03/25 11:57:30;;;;;;;5.50;3.30;;;;;;;;;;5035226;28;20037;-63
2023/03/25 12:00:11;;;;;;;4.63;3.30;;;;;;;;;;5029598;28;20051;-63
2023/03/25 12:02:37;;;;;;;3.42;2.60;;;;;;;;;;5028475;28;20067;-64
2023/03/25 12:05:12;;;;;;;6.70;2.95;;;;;;;;;;5021029;28;20116;-65
2023/03/25 12:07:46;;;;;;;3.55;2.42;;;;;;;;;;5035375;28;20037;-63
2023/03/25 12:10:19;;;;;;;4.30;2.80;;;;;;;;;;5029254;28;20051;-61
2023/03/25 12:12:53;;;;;;;4.40;2.88;;;;;;;;;;5028775;28;20037;-62
2023/03/25 12:15:21;;;;;;;5.38;3.20;;;;;;;;;;5027383;28;20041;-64
2023/03/25 12:17:47;;;;;;;5.13;3.30;;;;;;;;;;5025178;28;20064;-62
2023/03/25 12:20:15;;;;;;;5.13;2.60;;;;;;;;;;5028352;28;20536;-61
2023/03/25 12:22:41;;;;;;;6.88;3.00;;;;;;;;;;5029606;28;20060;-64
2023/03/25 12:25:06;;;;;;;4.82;2.83;;;;;;;;;;5018850;28;20037;-65
2023/03/25 12:27:35;;;;;;;4.53;3.25;;;;;;;;;;5029097;28;20417;-62
2023/03/25 12:30:09;;;;;;;7.03;3.10;;;;;;;;;;5026816;28;20531;-64
2023/03/25 12:32:53;;;;;;;5.05;2.80;;;;;;;;;;5026750;28;20059;-63
2023/03/25 12:35:22;;;;;;;3.55;2.67;;;;;;;;;;5031124;28;20044;-63
2023/03/25 12:37:53;;;;;;;4.32;2.80;;;;;;;;;;5022823;28;20016;-61
2023/03/25 12:40:24;;;;;;;3.72;2.47;;;;;;;;;;5022890;28;20060;-64
2023/03/25 12:43:04;;;;;;;4.53;2.50;;;;;;;;;;5024981;28;20036;-63
2023/03/25 12:45:30;;;;;;;4.13;2.70;;;;;;;;;;5026998;28;20029;-62
2023/03/25 12:48:19;;;;;;;4.38;2.97;;;;;;;;;;5027535;28;20063;-61
2023/03/25 12:50:56;;;;;;;3.72;2.72;;;;;;;;;;5021956;28;20021;-63
2023/03/25 12:53:22;;;;;;;6.35;2.45;;;;;;;;;;5017470;28;20068;-61
2023/03/25 12:56:10;;;;;;;4.18;2.92;;;;;;;;;;5032206;28;20087;-65
2023/03/25 12:58:48;;;;;;;5.00;2.90;;;;;;;;;;5019157;28;20041;-63
2023/03/25 13:01:17;;;;;;;3.70;2.53;;;;;;;;;;5029326;28;20708;-64
2023/03/25 13:03:48;;;;;;;6.10;2.93;;;;;;;;;;5027137;28;20056;-64
2023/03/25 13:06:13;;;;;;;4.00;2.80;;;;;;;;;;5027904;28;20032;-61
2023/03/25 13:08:45;;;;;;;5.77;2.80;;;;;;;;;;5026996;28;20028;-64
2023/03/25 13:11:15;;;;;;;10.95;3.55;;;;;;;;;;5018336;28;20627;-62
2023/03/25 13:13:40;;;;;;;5.95;3.00;;;;;;;;;;5024909;28;20051;-63
2023/03/25 13:16:08;;;;;;;4.30;2.60;;;;;;;;;;5045725;28;20028;-63
2023/03/25 13:18:47;;;;;;;6.47;2.95;;;;;;;;;;5040813;28;20024;-66
2023/03/25 13:21:16;;;;;;;4.82;2.63;;;;;;;;;;5033352;28;20381;-62
2023/03/25 13:23:42;;;;;;;4.97;2.67;;;;;;;;;;5019182;28;20048;-64
2023/03/25 13:26:11;;;;;;;4.88;2.80;;;;;;;;;;5040922;28;20366;-65
2023/03/25 13:28:38;;;;;;;6.10;2.92;;;;;;;;;;5043185;28;20595;-64
2023/03/25 13:31:04;;;;;;;6.95;2.85;;;;;;;;;;5041277;28;20013;-64
2023/03/25 13:33:31;;;;;;;5.07;2.60;;;;;;;;;;5037420;28;20032;-68
2023/03/25 13:36:14;;;;;;;6.07;2.67;;;;;;;;;;5048483;28;20114;-65
2023/03/25 13:38:41;;;;;;;5.03;3.10;;;;;;;;;;5056311;28;20115;-63
2023/03/25 13:41:18;;;;;;;6.55;3.10;;;;;;;;;;5030861;28;20029;-65
2023/03/25 13:43:49;;;;;;;7.45;2.78;;;;;;;;;;5054017;28;20047;-67
2023/03/25 13:46:17;;;;;;;7.50;2.92;;;;;;;;;;5026615;28;20584;-65
2023/03/25 13:48:45;;;;;;;9.57;2.70;;;;;;;;;;5038851;28;20106;-61
2023/03/25 13:51:10;;;;;;;6.35;2.72;;;;;;;;;;5042099;28;20039;-66
2023/03/25 13:53:37;;;;;;;5.88;2.80;;;;;;;;;;5042274;28;20799;-66
2023/03/25 13:56:03;;;;;;;4.28;2.75;;;;;;;;;;5042152;28;20044;-66
2023/03/25 13:58:40;;;;;;;4.63;2.60;;;;;;;;;;5022382;28;20388;-64
2023/03/25 14:01:06;;;;;;;5.05;3.00;;;;;;;;;;5030486;28;20305;-63
2023/03/25 14:03:54;;;;;;;4.10;2.67;;;;;;;;;;5027842;28;20037;-66
2023/03/25 14:06:32;;;;;;;3.47;2.33;;;;;;;;;;5013600;28;20036;-63
2023/03/25 14:09:16;;;;;;;4.25;2.55;;;;;;;;;;5032667;28;20581;-65
2023/03/25 14:11:49;;;;;;;4.25;2.50;;;;;;;;;;5032055;28;20029;-65
2023/03/25 14:14:16;;;;;;;4.85;2.80;;;;;;;;;;5040266;28;20037;-65
2023/03/25 14:16:45;;;;;;;3.75;2.40;;;;;;;;;;5028967;28;20057;-67
2023/03/25 14:19:11;;;;;;;4.43;2.55;;;;;;;;;;5048243;28;20079;-64
2023/03/25 14:21:37;;;;;;;5.07;2.75;;;;;;;;;;5046052;28;20019;-65
2023/03/25 14:24:08;;;;;;;3.67;2.63;;;;;;;;;;5050381;28;20047;-64
2023/03/25 14:26:34;;;;;;;2.88;2.50;;;;;;;;;;5046720;28;20120;-66
2023/03/25 14:29:02;;;;;;;4.47;2.53;;;;;;;;;;5051236;28;20549;-64
2023/03/25 14:31:28;;;;;;;4.05;2.60;;;;;;;;;;5050396;28;20099;-63
2023/03/25 14:33:56;;;;;;;3.63;2.67;;;;;;;;;;5056212;28;20063;-64
2023/03/25 14:36:28;;;;;;;4.63;2.60;;;;;;;;;;5061020;28;20066;-66
2023/03/25 14:38:57;;;;;;;4.00;2.40;;;;;;;;;;5045711;28;20087;-67
2023/03/25 14:41:45;;;;;;;4.63;2.80;;;;;;;;;;5033214;28;20051;-64
2023/03/25 14:44:17;;;;;;;3.90;2.33;;;;;;;;;;5050343;28;20029;-64
2023/03/25 14:46:45;;;;;;;4.20;2.47;;;;;;;;;;5051837;28;20095;-63
2023/03/25 14:49:17;;;;;;;3.88;2.63;;;;;;;;;;5046777;28;20047;-65